Time;durP1;ratioP1;P1;durP2;ratioP2;P2;SDS_P1;SDS_P2;PMS_P1;PMS_P2;Temp;Humidity;BMP_temperature;BMP_pressure;BME280_temperature;BME280_humidity;BME280_pressure;Samples;Min_cycle;Max_cycle;Signal;HPM_P1;HPM_P2
2022/10/06 00:00:48;;;;;;;5.50;3.78;;;;;;;;;;4990129;28;20062;-67
2022/10/06 00:03:14;;;;;;;10.02;3.90;;;;;;;;;;4986623;28;20042;-67
2022/10/06 00:05:40;;;;;;;7.45;3.80;;;;;;;;;;4982213;28;20054;-67
2022/10/06 00:08:06;;;;;;;5.90;3.63;;;;;;;;;;4986904;28;20105;-67
2022/10/06 00:10:32;;;;;;;5.32;3.42;;;;;;;;;;4989094;28;20042;-67
2022/10/06 00:12:58;;;;;;;7.60;4.32;;;;;;;;;;4984426;28;20034;-67
2022/10/06 00:15:27;;;;;;;5.68;4.43;;;;;;;;;;4987479;28;20038;-69
2022/10/06 00:17:55;;;;;;;9.95;4.55;;;;;;;;;;4987427;28;20057;-67
2022/10/06 00:20:21;;;;;;;9.02;4.38;;;;;;;;;;4985880;28;20081;-66
2022/10/06 00:22:48;;;;;;;10.18;3.97;;;;;;;;;;4985731;28;20073;-66
2022/10/06 00:25:18;;;;;;;7.03;3.90;;;;;;;;;;4985508;28;20050;-66
2022/10/06 00:27:48;;;;;;;8.48;4.10;;;;;;;;;;4987070;28;20058;-66
2022/10/06 00:30:24;;;;;;;6.18;4.10;;;;;;;;;;4989478;28;20038;-67
2022/10/06 00:32:51;;;;;;;10.65;3.95;;;;;;;;;;4983116;28;20046;-68
2022/10/06 00:35:17;;;;;;;6.68;3.83;;;;;;;;;;4985552;28;20084;-68
2022/10/06 00:37:42;;;;;;;7.97;4.70;;;;;;;;;;4985519;28;20074;-68
2022/10/06 00:40:08;;;;;;;8.05;3.75;;;;;;;;;;4986107;28;20525;-68
2022/10/06 00:42:57;;;;;;;7.07;3.85;;;;;;;;;;4986511;28;20039;-68
2022/10/06 00:45:44;;;;;;;6.97;3.72;;;;;;;;;;4986780;28;20141;-69
2022/10/06 00:48:21;;;;;;;9.02;3.97;;;;;;;;;;4988069;28;20054;-68
2022/10/06 00:50:47;;;;;;;6.00;3.60;;;;;;;;;;4992353;28;20085;-68
2022/10/06 00:53:13;;;;;;;6.68;3.90;;;;;;;;;;4982816;28;20046;-67
2022/10/06 00:55:39;;;;;;;6.15;3.90;;;;;;;;;;4990053;28;20046;-68
2022/10/06 00:58:05;;;;;;;5.78;3.60;;;;;;;;;;4987689;28;20034;-68
2022/10/06 01:00:31;;;;;;;8.52;4.00;;;;;;;;;;4988931;28;20034;-69
2022/10/06 01:03:04;;;;;;;7.57;3.75;;;;;;;;;;4985176;28;20049;-70
2022/10/06 01:05:34;;;;;;;6.53;3.35;;;;;;;;;;4986071;28;20050;-69
2022/10/06 01:08:00;;;;;;;8.32;3.90;;;;;;;;;;4986787;28;20056;-70
2022/10/06 01:10:25;;;;;;;12.18;3.80;;;;;;;;;;4990274;28;20054;-70
2022/10/06 01:12:51;;;;;;;5.30;3.85;;;;;;;;;;4984219;28;20034;-70
2022/10/06 01:15:17;;;;;;;8.15;3.80;;;;;;;;;;4990368;28;20050;-70
2022/10/06 01:17:50;;;;;;;8.45;3.55;;;;;;;;;;4987548;28;20409;-69
2022/10/06 01:20:18;;;;;;;9.07;3.78;;;;;;;;;;4988668;28;20130;-70
2022/10/06 01:22:46;;;;;;;6.00;3.60;;;;;;;;;;4987249;28;20077;-69
2022/10/06 01:25:14;;;;;;;7.72;3.47;;;;;;;;;;4987074;28;20034;-70
2022/10/06 01:27:44;;;;;;;6.63;3.80;;;;;;;;;;4986008;28;20107;-70
2022/10/06 01:30:14;;;;;;;7.88;3.63;;;;;;;;;;4983384;28;20129;-70
2022/10/06 01:32:40;;;;;;;7.13;3.65;;;;;;;;;;4983696;28;20524;-70
2022/10/06 01:35:07;;;;;;;9.15;3.55;;;;;;;;;;4989067;28;20140;-70
2022/10/06 01:37:33;;;;;;;7.32;3.65;;;;;;;;;;4981738;28;20078;-71
2022/10/06 01:39:58;;;;;;;4.32;3.20;;;;;;;;;;4981999;28;20058;-69
2022/10/06 01:42:24;;;;;;;5.78;3.35;;;;;;;;;;4989033;28;20496;-69
2022/10/06 01:44:49;;;;;;;7.97;3.58;;;;;;;;;;4983616;28;20054;-70
2022/10/06 01:47:15;;;;;;;8.35;3.20;;;;;;;;;;4987709;28;20042;-70
2022/10/06 01:49:40;;;;;;;5.63;3.03;;;;;;;;;;4983371;28;20096;-70
2022/10/06 01:52:06;;;;;;;6.82;3.28;;;;;;;;;;4987231;28;20499;-69
2022/10/06 01:54:31;;;;;;;5.50;3.20;;;;;;;;;;4990168;28;20057;-70
2022/10/06 01:56:57;;;;;;;6.55;3.20;;;;;;;;;;4991434;28;20082;-69
2022/10/06 01:59:23;;;;;;;6.43;3.67;;;;;;;;;;4987616;28;20054;-69
2022/10/06 02:01:49;;;;;;;9.48;3.40;;;;;;;;;;4979820;28;20054;-69
2022/10/06 02:04:15;;;;;;;5.13;2.15;;;;;;;;;;4984009;28;20042;-69
2022/10/06 02:06:40;;;;;;;3.35;1.95;;;;;;;;;;4985806;28;20088;-70
2022/10/06 02:09:06;;;;;;;2.45;1.50;;;;;;;;;;4989496;28;20553;-69
2022/10/06 02:11:31;;;;;;;3.55;1.80;;;;;;;;;;4988045;28;20132;-69
2022/10/06 02:13:57;;;;;;;4.82;1.30;;;;;;;;;;4989213;28;20038;-69
2022/10/06 02:16:22;;;;;;;6.55;1.70;;;;;;;;;;4986707;28;20042;-69
2022/10/06 02:18:48;;;;;;;2.72;0.90;;;;;;;;;;4968039;28;20596;-69
2022/10/06 02:21:18;;;;;;;4.20;0.77;;;;;;;;;;4977852;28;20097;-69
2022/10/06 02:23:44;;;;;;;3.20;0.93;;;;;;;;;;4988872;28;20092;-70
2022/10/06 02:26:11;;;;;;;0.80;0.50;;;;;;;;;;4983254;28;20560;-70
2022/10/06 02:28:36;;;;;;;2.28;0.73;;;;;;;;;;4987512;28;20042;-69
2022/10/06 02:31:07;;;;;;;2.45;0.60;;;;;;;;;;4985455;28;20046;-69
2022/10/06 02:33:34;;;;;;;1.65;0.50;;;;;;;;;;4982485;28;20044;-69
2022/10/06 02:36:01;;;;;;;3.90;1.10;;;;;;;;;;4988086;28;20065;-69
2022/10/06 02:38:27;;;;;;;3.25;0.60;;;;;;;;;;4986247;28;20050;-69
2022/10/06 02:40:52;;;;;;;3.75;0.70;;;;;;;;;;4980386;28;20109;-69
2022/10/06 02:43:19;;;;;;;0.82;0.35;;;;;;;;;;4989831;28;20131;-69
2022/10/06 02:45:55;;;;;;;0.98;0.50;;;;;;;;;;4987076;28;20038;-70
2022/10/06 02:48:23;;;;;;;2.22;0.60;;;;;;;;;;4986978;28;20077;-69
2022/10/06 02:50:54;;;;;;;1.98;0.45;;;;;;;;;;4997373;28;20088;-69
2022/10/06 02:53:20;;;;;;;2.35;0.40;;;;;;;;;;4989187;28;20149;-69
2022/10/06 02:55:45;;;;;;;3.70;0.60;;;;;;;;;;4987920;28;20142;-69
2022/10/06 02:58:10;;;;;;;2.60;0.30;;;;;;;;;;4989890;28;20040;-70
2022/10/06 03:00:36;;;;;;;0.93;0.40;;;;;;;;;;4990059;28;20113;-70
2022/10/06 03:03:01;;;;;;;3.47;0.60;;;;;;;;;;4986597;28;20037;-70
2022/10/06 03:05:26;;;;;;;2.47;0.57;;;;;;;;;;4990939;28;20041;-70
2022/10/06 03:07:52;;;;;;;1.75;0.60;;;;;;;;;;4992777;28;20104;-70
2022/10/06 03:10:17;;;;;;;5.47;0.57;;;;;;;;;;4992104;28;20046;-70
2022/10/06 03:12:43;;;;;;;2.28;0.60;;;;;;;;;;4989741;28;20057;-69
2022/10/06 03:15:08;;;;;;;1.63;0.40;;;;;;;;;;4987046;28;20133;-70
2022/10/06 03:17:34;;;;;;;2.95;0.90;;;;;;;;;;4989361;28;20065;-69
2022/10/06 03:19:59;;;;;;;1.83;0.43;;;;;;;;;;4994234;28;20642;-69
2022/10/06 03:22:24;;;;;;;3.17;0.40;;;;;;;;;;4987357;28;20176;-70
2022/10/06 03:24:50;;;;;;;4.20;0.77;;;;;;;;;;4985055;28;20031;-70
2022/10/06 03:27:15;;;;;;;2.22;0.40;;;;;;;;;;4986656;28;20391;-70
2022/10/06 03:29:40;;;;;;;3.20;0.70;;;;;;;;;;4989460;28;20058;-70
2022/10/06 03:32:06;;;;;;;1.27;0.40;;;;;;;;;;4984146;28;20051;-70
2022/10/06 03:34:31;;;;;;;2.13;0.40;;;;;;;;;;4986089;28;20038;-69
2022/10/06 03:36:57;;;;;;;2.05;0.38;;;;;;;;;;4988492;28;20457;-69
2022/10/06 03:39:22;;;;;;;1.48;0.50;;;;;;;;;;4985571;28;20117;-69
2022/10/06 03:41:48;;;;;;;2.20;0.52;;;;;;;;;;4986031;28;20056;-69
2022/10/06 03:44:13;;;;;;;2.75;0.60;;;;;;;;;;4987001;28;20133;-71
2022/10/06 03:46:38;;;;;;;2.13;0.40;;;;;;;;;;4984399;28;20096;-70
2022/10/06 03:49:04;;;;;;;0.88;0.30;;;;;;;;;;4983513;28;20262;-70
2022/10/06 03:51:32;;;;;;;2.83;0.50;;;;;;;;;;4988545;28;20053;-70
2022/10/06 03:53:58;;;;;;;2.88;0.65;;;;;;;;;;4986650;28;20042;-70
2022/10/06 03:56:30;;;;;;;5.25;0.73;;;;;;;;;;4985864;28;20518;-70
2022/10/06 03:59:10;;;;;;;5.70;0.60;;;;;;;;;;4986752;28;20050;-70
2022/10/06 04:01:39;;;;;;;2.30;0.38;;;;;;;;;;4981082;28;20061;-70
2022/10/06 04:04:05;;;;;;;1.95;0.50;;;;;;;;;;4981821;28;20497;-70
2022/10/06 04:06:33;;;;;;;4.03;0.60;;;;;;;;;;4985266;28;20513;-60
2022/10/06 04:08:58;;;;;;;3.08;0.40;;;;;;;;;;4987401;28;20038;-60
2022/10/06 04:11:30;;;;;;;3.13;0.50;;;;;;;;;;4981279;28;20074;-60
2022/10/06 04:13:59;;;;;;;2.47;0.50;;;;;;;;;;4980093;28;20043;-60
2022/10/06 04:16:27;;;;;;;2.80;0.77;;;;;;;;;;4984587;28;20042;-61
2022/10/06 04:18:55;;;;;;;2.53;0.52;;;;;;;;;;4988668;28;20065;-62
2022/10/06 04:21:22;;;;;;;2.55;0.73;;;;;;;;;;4979831;28;20073;-60
2022/10/06 04:23:48;;;;;;;4.15;0.60;;;;;;;;;;4983989;28;20129;-60
2022/10/06 04:26:16;;;;;;;6.35;0.52;;;;;;;;;;4982605;28;20043;-59
2022/10/06 04:28:43;;;;;;;1.33;0.43;;;;;;;;;;4986785;28;20058;-60
2022/10/06 04:31:22;;;;;;;2.53;0.70;;;;;;;;;;4984615;28;20027;-59
2022/10/06 04:33:50;;;;;;;3.17;0.68;;;;;;;;;;4988532;28;20084;-59
2022/10/06 04:36:21;;;;;;;4.53;1.17;;;;;;;;;;4990546;28;20107;-59
2022/10/06 04:38:55;;;;;;;3.72;0.65;;;;;;;;;;4987479;28;20402;-59
2022/10/06 04:41:22;;;;;;;2.97;1.05;;;;;;;;;;4991868;28;20038;-61
2022/10/06 04:43:48;;;;;;;5.50;1.17;;;;;;;;;;4989576;28;20145;-61
2022/10/06 04:46:15;;;;;;;1.73;0.75;;;;;;;;;;4991969;28;20504;-63
2022/10/06 04:48:40;;;;;;;3.83;0.73;;;;;;;;;;4985759;28;20058;-62
2022/10/06 04:51:09;;;;;;;2.92;0.82;;;;;;;;;;4986973;28;20485;-61
2022/10/06 04:53:35;;;;;;;2.35;0.73;;;;;;;;;;4990159;28;20038;-64
2022/10/06 04:56:04;;;;;;;3.38;0.60;;;;;;;;;;4990053;28;20097;-63
2022/10/06 04:58:32;;;;;;;3.50;1.00;;;;;;;;;;4987586;28;20149;-63
2022/10/06 05:00:58;;;;;;;6.10;0.80;;;;;;;;;;4990854;28;20034;-63
2022/10/06 05:03:24;;;;;;;4.63;1.00;;;;;;;;;;4981294;28;20034;-63
2022/10/06 05:05:49;;;;;;;4.47;0.85;;;;;;;;;;4985957;28;20483;-63
2022/10/06 05:08:15;;;;;;;3.95;0.90;;;;;;;;;;4984000;28;20058;-63
2022/10/06 05:10:41;;;;;;;3.78;0.73;;;;;;;;;;4987392;28;20621;-62
2022/10/06 05:13:08;;;;;;;3.70;0.73;;;;;;;;;;4984844;28;20443;-62
2022/10/06 05:15:33;;;;;;;7.90;0.77;;;;;;;;;;4990388;28;20034;-62
2022/10/06 05:17:59;;;;;;;5.38;0.90;;;;;;;;;;4993126;28;20425;-63
2022/10/06 05:20:24;;;;;;;4.70;0.88;;;;;;;;;;4982155;28;20057;-61
2022/10/06 05:22:50;;;;;;;5.78;1.17;;;;;;;;;;4984133;28;20077;-59
2022/10/06 05:25:15;;;;;;;4.13;0.70;;;;;;;;;;4991228;28;20078;-62
2022/10/06 05:27:41;;;;;;;3.67;0.70;;;;;;;;;;4983748;28;20503;-61
2022/10/06 05:30:07;;;;;;;6.22;0.88;;;;;;;;;;4986314;28;20052;-62
2022/10/06 05:32:32;;;;;;;3.60;0.90;;;;;;;;;;4987767;28;20066;-62
2022/10/06 05:34:57;;;;;;;5.30;1.00;;;;;;;;;;4980729;28;20050;-61
2022/10/06 05:37:24;;;;;;;6.72;1.40;;;;;;;;;;4980331;28;20411;-62
2022/10/06 05:39:49;;;;;;;10.90;1.50;;;;;;;;;;4981458;28;20058;-61
2022/10/06 05:42:15;;;;;;;7.65;0.88;;;;;;;;;;4982282;28;20690;-62
2022/10/06 05:44:40;;;;;;;2.78;0.80;;;;;;;;;;4986338;28;20058;-60
2022/10/06 05:47:05;;;;;;;4.30;1.02;;;;;;;;;;4990557;28;20112;-60
2022/10/06 05:49:31;;;;;;;7.53;1.13;;;;;;;;;;4987429;28;20408;-60
2022/10/06 05:51:56;;;;;;;3.80;1.05;;;;;;;;;;4983296;28;20089;-65
2022/10/06 05:54:21;;;;;;;3.95;0.90;;;;;;;;;;4985263;28;20041;-66
2022/10/06 05:56:47;;;;;;;6.40;1.20;;;;;;;;;;4989640;28;20527;-61
2022/10/06 05:59:12;;;;;;;5.00;1.40;;;;;;;;;;4982204;28;20050;-61
2022/10/06 06:01:41;;;;;;;4.22;0.80;;;;;;;;;;4982040;28;20053;-62
2022/10/06 06:04:12;;;;;;;5.80;0.98;;;;;;;;;;4985732;28;20099;-61
2022/10/06 06:06:40;;;;;;;5.35;1.15;;;;;;;;;;4982802;28;20030;-55
2022/10/06 06:09:08;;;;;;;10.45;1.40;;;;;;;;;;4986073;28;20050;-57
2022/10/06 06:11:36;;;;;;;5.22;1.02;;;;;;;;;;4988085;28;20416;-57
2022/10/06 06:14:10;;;;;;;9.45;1.10;;;;;;;;;;4985655;28;20133;-56
2022/10/06 06:16:37;;;;;;;2.67;1.00;;;;;;;;;;4982571;28;20129;-54
2022/10/06 06:19:04;;;;;;;17.02;2.33;;;;;;;;;;4987183;28;20493;-55
2022/10/06 06:21:29;;;;;;;10.85;2.00;;;;;;;;;;4987592;28;20061;-55
2022/10/06 06:23:55;;;;;;;11.65;2.33;;;;;;;;;;4982465;28;20077;-56
2022/10/06 06:26:23;;;;;;;16.13;2.17;;;;;;;;;;4982186;28;20129;-57
2022/10/06 06:28:53;;;;;;;7.45;1.85;;;;;;;;;;4994412;28;20575;-56
2022/10/06 06:31:27;;;;;;;13.95;2.17;;;;;;;;;;4983342;28;20066;-57
2022/10/06 06:33:55;;;;;;;7.43;1.70;;;;;;;;;;4981927;28;20034;-58
2022/10/06 06:36:39;;;;;;;6.40;1.70;;;;;;;;;;4988075;28;20041;-58
2022/10/06 06:39:07;;;;;;;10.20;1.92;;;;;;;;;;4979325;28;20046;-55
2022/10/06 06:41:36;;;;;;;7.00;1.35;;;;;;;;;;4986946;28;20541;-56
2022/10/06 06:44:02;;;;;;;6.07;1.40;;;;;;;;;;4981295;28;20128;-58
2022/10/06 06:46:30;;;;;;;8.85;1.65;;;;;;;;;;4982385;28;20054;-57
2022/10/06 06:49:03;;;;;;;3.65;1.27;;;;;;;;;;4979906;28;20064;-59
2022/10/06 06:51:33;;;;;;;7.67;1.50;;;;;;;;;;4990513;28;20049;-57
2022/10/06 06:54:01;;;;;;;7.13;2.60;;;;;;;;;;4985355;28;20052;-58
2022/10/06 06:56:27;;;;;;;13.55;3.20;;;;;;;;;;4973376;28;20082;-58
2022/10/06 06:58:53;;;;;;;7.10;2.03;;;;;;;;;;4980889;28;20112;-57
2022/10/06 07:01:20;;;;;;;13.85;3.53;;;;;;;;;;4987570;28;20505;-57
2022/10/06 07:03:51;;;;;;;8.23;1.90;;;;;;;;;;4984722;28;20044;-57
2022/10/06 07:06:17;;;;;;;6.72;1.25;;;;;;;;;;4988598;28;20050;-60
2022/10/06 07:08:47;;;;;;;9.43;2.00;;;;;;;;;;4987804;28;20048;-59
2022/10/06 07:11:17;;;;;;;10.68;2.30;;;;;;;;;;4985597;28;20402;-60
2022/10/06 07:13:44;;;;;;;11.27;1.60;;;;;;;;;;4982906;28;20058;-60
2022/10/06 07:27:28;;;;;;;9.50;1.55;;;;;;;;;;4993123;28;20401;-60
2022/10/06 07:29:55;;;;;;;8.30;1.98;;;;;;;;;;4996286;28;20063;-60
2022/10/06 07:32:25;;;;;;;7.65;1.23;;;;;;;;;;4989753;28;20047;-60
2022/10/06 07:34:51;;;;;;;7.57;1.30;;;;;;;;;;4988332;28;20063;-60
2022/10/06 07:37:17;;;;;;;5.45;1.30;;;;;;;;;;4987651;28;20051;-60
2022/10/06 07:39:43;;;;;;;5.13;1.20;;;;;;;;;;4995015;28;20079;-60
2022/10/06 07:42:12;;;;;;;4.70;1.00;;;;;;;;;;4993520;28;20050;-60
2022/10/06 07:44:38;;;;;;;7.50;1.10;;;;;;;;;;4992308;28;20073;-59
2022/10/06 07:47:04;;;;;;;6.60;1.08;;;;;;;;;;4990635;28;20066;-62
2022/10/06 07:49:29;;;;;;;4.05;0.80;;;;;;;;;;4989105;28;20092;-59
2022/10/06 07:51:55;;;;;;;8.15;1.13;;;;;;;;;;4988238;28;20032;-60
2022/10/06 07:54:21;;;;;;;7.60;1.52;;;;;;;;;;4985729;28;20030;-61
2022/10/06 07:56:47;;;;;;;6.70;1.15;;;;;;;;;;4987803;28;20082;-60
2022/10/06 07:59:12;;;;;;;3.45;1.20;;;;;;;;;;4979793;28;20083;-60
2022/10/06 08:01:38;;;;;;;7.32;1.05;;;;;;;;;;4982171;28;20065;-60
2022/10/06 08:04:05;;;;;;;6.88;1.20;;;;;;;;;;4989542;28;20031;-59
2022/10/06 08:06:32;;;;;;;7.57;1.50;;;;;;;;;;4979435;28;22350;-69
2022/10/06 08:08:57;;;;;;;5.38;1.00;;;;;;;;;;4984813;28;20088;-69
2022/10/06 08:11:23;;;;;;;6.60;1.08;;;;;;;;;;4998084;28;20937;-69
2022/10/06 08:13:50;;;;;;;6.95;1.30;;;;;;;;;;4987183;28;20076;-69
2022/10/06 08:16:20;;;;;;;6.55;1.40;;;;;;;;;;4990194;28;20390;-69
2022/10/06 08:18:53;;;;;;;5.57;1.05;;;;;;;;;;4991395;28;20397;-69
2022/10/06 08:21:20;;;;;;;;;;;;;;;;;;4990069;28;20413;-69
2022/10/06 08:23:47;;;;;;;5.82;1.10;;;;;;;;;;4988165;28;20005;-69
2022/10/06 08:26:14;;;;;;;7.72;1.55;;;;;;;;;;4986789;28;20050;-69
2022/10/06 08:28:43;;;;;;;8.43;1.42;;;;;;;;;;4990922;28;20529;-69
2022/10/06 08:31:10;;;;;;;4.72;1.27;;;;;;;;;;4987976;28;20103;-68
2022/10/06 08:33:37;;;;;;;6.88;1.40;;;;;;;;;;4993596;28;20520;-69
2022/10/06 08:36:05;;;;;;;9.02;1.33;;;;;;;;;;4996811;28;20525;-68
2022/10/06 08:38:31;;;;;;;9.60;1.25;;;;;;;;;;4997567;28;20050;-68
2022/10/06 08:40:57;;;;;;;5.32;1.17;;;;;;;;;;4998039;28;20746;-68
2022/10/06 08:43:24;;;;;;;5.63;1.10;;;;;;;;;;4983814;28;20129;-68
2022/10/06 08:45:53;;;;;;;4.75;1.20;;;;;;;;;;4989182;28;20453;-69
2022/10/06 08:48:25;;;;;;;7.30;1.40;;;;;;;;;;4988142;28;20058;-70
2022/10/06 08:51:11;;;;;;;10.32;1.40;;;;;;;;;;4986372;28;20061;-69
2022/10/06 08:53:53;;;;;;;10.00;1.50;;;;;;;;;;4991384;28;20062;-70
2022/10/06 08:56:23;;;;;;;9.35;1.63;;;;;;;;;;4989201;28;20081;-70
2022/10/06 08:58:54;;;;;;;7.68;1.30;;;;;;;;;;4986533;28;20050;-70
2022/10/06 09:01:31;;;;;;;9.63;1.25;;;;;;;;;;4981981;28;20043;-69
2022/10/06 09:04:02;;;;;;;6.97;1.30;;;;;;;;;;4990135;28;20096;-70
2022/10/06 09:06:41;;;;;;;10.45;1.60;;;;;;;;;;4990959;28;20494;-70
2022/10/06 09:09:37;;;;;;;6.63;1.13;;;;;;;;;;4982214;28;20046;-69
2022/10/06 09:12:32;;;;;;;9.60;1.23;;;;;;;;;;4984689;28;20061;-70
2022/10/06 09:15:26;;;;;;;12.20;1.55;;;;;;;;;;4980953;28;20134;-69
2022/10/06 09:18:07;;;;;;;10.50;1.50;;;;;;;;;;4980732;28;20049;-71
2022/10/06 09:20:55;;;;;;;8.13;1.35;;;;;;;;;;4987450;28;20045;-71
2022/10/06 09:26:13;;;;;;;7.75;1.50;;;;;;;;;;4993069;28;20100;-71
2022/10/06 09:28:39;;;;;;;9.68;1.67;;;;;;;;;;4987746;28;20046;-71
2022/10/06 09:31:36;;;;;;;8.82;1.58;;;;;;;;;;4991662;28;20041;-70
2022/10/06 09:34:09;;;;;;;8.68;1.65;;;;;;;;;;4984304;28;20069;-71
2022/10/06 09:36:59;;;;;;;9.65;1.70;;;;;;;;;;4990330;28;20034;-70
2022/10/06 09:39:25;;;;;;;6.57;1.25;;;;;;;;;;4988926;28;20043;-70
2022/10/06 09:41:53;;;;;;;12.40;2.17;;;;;;;;;;4987438;28;20413;-70
2022/10/06 09:44:29;;;;;;;7.10;1.30;;;;;;;;;;4988001;28;20129;-69
2022/10/06 09:46:55;;;;;;;8.27;1.42;;;;;;;;;;4990561;28;20042;-70
2022/10/06 09:49:22;;;;;;;12.07;1.35;;;;;;;;;;4985683;28;20038;-70
2022/10/06 09:52:13;;;;;;;8.63;1.35;;;;;;;;;;4985245;28;20038;-70
2022/10/06 09:54:42;;;;;;;7.75;1.40;;;;;;;;;;4976662;28;20050;-70
2022/10/06 09:57:30;;;;;;;6.15;1.13;;;;;;;;;;4977108;28;20057;-73
2022/10/06 09:59:58;;;;;;;7.55;1.27;;;;;;;;;;4986831;28;20546;-70
2022/10/06 10:02:29;;;;;;;6.90;1.20;;;;;;;;;;4982388;28;20050;-70
2022/10/06 10:04:56;;;;;;;14.35;1.40;;;;;;;;;;4987742;28;20077;-69
2022/10/06 10:07:26;;;;;;;8.23;1.45;;;;;;;;;;4985042;28;20062;-69
2022/10/06 10:09:53;;;;;;;6.50;1.33;;;;;;;;;;4987258;28;20026;-69
2022/10/06 10:12:27;;;;;;;5.57;1.25;;;;;;;;;;4985228;28;20050;-69
2022/10/06 10:14:56;;;;;;;11.77;1.33;;;;;;;;;;4989422;28;20141;-69
2022/10/06 10:17:31;;;;;;;8.65;1.60;;;;;;;;;;4988096;28;20421;-69
2022/10/06 10:19:58;;;;;;;7.85;1.40;;;;;;;;;;4989412;28;20093;-69
2022/10/06 10:22:36;;;;;;;7.53;1.52;;;;;;;;;;4985187;28;20042;-70
2022/10/06 10:25:18;;;;;;;7.85;1.40;;;;;;;;;;4987615;28;20066;-69
2022/10/06 10:28:16;;;;;;;7.80;1.63;;;;;;;;;;4979028;28;20030;-67
2022/10/06 10:31:20;;;;;;;6.25;1.35;;;;;;;;;;4974465;28;20054;-67
2022/10/06 10:33:57;;;;;;;9.07;1.80;;;;;;;;;;4984779;28;20057;-68
2022/10/06 10:36:33;;;;;;;6.93;1.60;;;;;;;;;;4990766;28;20100;-68
2022/10/06 10:39:00;;;;;;;10.15;1.63;;;;;;;;;;4985633;28;20042;-68
2022/10/06 10:41:31;;;;;;;8.32;1.58;;;;;;;;;;4991263;28;20073;-68
2022/10/06 10:44:27;;;;;;;10.65;1.70;;;;;;;;;;4988956;28;20473;-68
2022/10/06 10:47:00;;;;;;;9.80;1.75;;;;;;;;;;4986390;28;20624;-68
2022/10/06 10:49:29;;;;;;;5.93;1.40;;;;;;;;;;4987895;28;20445;-69
2022/10/06 10:52:12;;;;;;;6.10;1.30;;;;;;;;;;4998393;28;20038;-68
2022/10/06 10:54:43;;;;;;;6.55;1.33;;;;;;;;;;4987929;28;20034;-68
2022/10/06 10:57:14;;;;;;;8.95;1.40;;;;;;;;;;4984984;28;20058;-69
2022/10/06 10:59:59;;;;;;;5.25;1.30;;;;;;;;;;4989859;28;20532;-68
2022/10/06 11:02:26;;;;;;;10.05;1.45;;;;;;;;;;4989232;28;20068;-67
2022/10/06 11:04:56;;;;;;;7.88;1.52;;;;;;;;;;4989559;28;20398;-68
2022/10/06 11:07:43;;;;;;;10.93;1.90;;;;;;;;;;4991987;28;20065;-68
2022/10/06 11:10:25;;;;;;;6.63;1.15;;;;;;;;;;4987614;28;20109;-68
2022/10/06 11:13:13;;;;;;;7.00;1.00;;;;;;;;;;4987710;28;20037;-69
2022/10/06 11:16:15;;;;;;;10.15;1.40;;;;;;;;;;4990216;28;20053;-68
2022/10/06 11:18:46;;;;;;;8.30;1.37;;;;;;;;;;4989246;28;20046;-68
2022/10/06 11:21:18;;;;;;;7.20;1.52;;;;;;;;;;4993268;28;20314;-68
2022/10/06 11:23:46;;;;;;;6.32;1.23;;;;;;;;;;4989464;28;20046;-69
2022/10/06 11:26:18;;;;;;;5.40;1.35;;;;;;;;;;4991945;28;20089;-69
2022/10/06 11:28:49;;;;;;;6.78;1.50;;;;;;;;;;4990609;28;20053;-68
2022/10/06 11:31:23;;;;;;;6.32;1.30;;;;;;;;;;4988218;28;20478;-70
2022/10/06 11:33:53;;;;;;;6.57;1.30;;;;;;;;;;4990522;28;20038;-68
2022/10/06 11:36:46;;;;;;;5.25;1.17;;;;;;;;;;4989666;28;20042;-69
2022/10/06 11:39:35;;;;;;;7.25;1.25;;;;;;;;;;4963156;28;20074;-68
2022/10/06 11:42:39;;;;;;;10.10;1.40;;;;;;;;;;4992553;28;20050;-69
2022/10/06 11:45:15;;;;;;;9.18;2.00;;;;;;;;;;4993306;28;22128;-68
2022/10/06 11:48:12;;;;;;;4.82;1.13;;;;;;;;;;4995851;28;20100;-69
2022/10/06 11:50:43;;;;;;;4.55;1.10;;;;;;;;;;4995385;28;20038;-72
2022/10/06 11:53:36;;;;;;;7.45;1.55;;;;;;;;;;4996873;28;20053;-71
2022/10/06 11:56:16;;;;;;;4.40;1.13;;;;;;;;;;4999006;28;20080;-69
2022/10/06 11:58:51;;;;;;;8.55;1.25;;;;;;;;;;4989652;28;20050;-70
2022/10/06 12:01:43;;;;;;;8.88;1.60;;;;;;;;;;4995084;28;20109;-69
2022/10/06 12:04:09;;;;;;;12.07;1.70;;;;;;;;;;4989313;28;20034;-70
2022/10/06 12:06:40;;;;;;;7.28;1.42;;;;;;;;;;4996681;28;20100;-69
2022/10/06 12:09:24;;;;;;;6.25;1.10;;;;;;;;;;4985423;28;20137;-70
2022/10/06 12:11:55;;;;;;;5.90;1.17;;;;;;;;;;4988797;28;20112;-69
2022/10/06 12:14:45;;;;;;;14.30;1.63;;;;;;;;;;4986462;28;20050;-67
2022/10/06 12:17:30;;;;;;;8.75;1.45;;;;;;;;;;4987349;28;20034;-71
2022/10/06 12:20:19;;;;;;;5.95;1.08;;;;;;;;;;4995428;28;20133;-68
2022/10/06 12:23:08;;;;;;;4.05;1.13;;;;;;;;;;4989048;28;20067;-69
2022/10/06 12:25:54;;;;;;;5.63;1.20;;;;;;;;;;4949253;28;20066;-73
2022/10/06 12:28:47;;;;;;;4.70;1.60;;;;;;;;;;4986255;28;20047;-67
2022/10/06 12:31:33;;;;;;;4.88;1.13;;;;;;;;;;4982909;28;20444;-70
2022/10/06 12:33:59;;;;;;;8.65;1.20;;;;;;;;;;4991027;28;20037;-70
2022/10/06 12:36:28;;;;;;;5.45;1.10;;;;;;;;;;4981366;28;20069;-71
2022/10/06 12:39:05;;;;;;;4.40;1.10;;;;;;;;;;4987434;28;20657;-69
2022/10/06 12:41:53;;;;;;;5.40;1.05;;;;;;;;;;4989005;28;20061;-71
2022/10/06 12:44:25;;;;;;;5.40;1.27;;;;;;;;;;4987726;28;20046;-71
2022/10/06 12:46:53;;;;;;;3.97;1.00;;;;;;;;;;4993360;28;20042;-71
2022/10/06 12:49:44;;;;;;;5.68;1.00;;;;;;;;;;4988540;28;20054;-71
2022/10/06 12:52:34;;;;;;;4.28;1.25;;;;;;;;;;4989276;28;20121;-71
2022/10/06 12:55:16;;;;;;;4.38;0.90;;;;;;;;;;4992430;28;20091;-72
2022/10/06 12:57:47;;;;;;;5.88;0.98;;;;;;;;;;4988292;28;20067;-73
2022/10/06 13:00:34;;;;;;;5.70;1.17;;;;;;;;;;4984878;28;20498;-72
2022/10/06 13:03:02;;;;;;;5.40;1.15;;;;;;;;;;4984196;28;20528;-72
2022/10/06 13:05:28;;;;;;;6.10;1.20;;;;;;;;;;4995791;28;20096;-60
2022/10/06 13:08:05;;;;;;;5.93;1.20;;;;;;;;;;4987191;28;20114;-60
2022/10/06 13:10:32;;;;;;;4.35;1.10;;;;;;;;;;4986208;28;20119;-60
2022/10/06 13:12:59;;;;;;;8.00;1.05;;;;;;;;;;4982467;28;20035;-61
2022/10/06 13:15:28;;;;;;;4.18;0.80;;;;;;;;;;4986780;28;20033;-60
2022/10/06 13:18:11;;;;;;;2.00;0.85;;;;;;;;;;4989516;28;20081;-60
2022/10/06 13:20:51;;;;;;;3.33;1.20;;;;;;;;;;4988171;28;20188;-60
2022/10/06 13:23:32;;;;;;;6.32;1.00;;;;;;;;;;4987707;28;20050;-60
2022/10/06 13:26:20;;;;;;;4.53;0.88;;;;;;;;;;4988927;28;20078;-60
2022/10/06 13:28:51;;;;;;;3.63;0.93;;;;;;;;;;4982731;28;20050;-60
2022/10/06 13:31:29;;;;;;;10.25;0.90;;;;;;;;;;4992796;28;20056;-60
2022/10/06 13:33:59;;;;;;;5.03;1.00;;;;;;;;;;4986824;28;20035;-60
2022/10/06 13:36:26;;;;;;;5.85;0.93;;;;;;;;;;4981565;28;20444;-61
2022/10/06 13:38:52;;;;;;;6.07;0.90;;;;;;;;;;4980952;28;20049;-61
2022/10/06 13:41:35;;;;;;;4.95;1.05;;;;;;;;;;4981437;28;20046;-60
2022/10/06 13:44:17;;;;;;;3.33;0.80;;;;;;;;;;4983679;28;20057;-69
2022/10/06 13:46:48;;;;;;;8.47;0.87;;;;;;;;;;4980391;28;20053;-65
2022/10/06 13:49:26;;;;;;;4.95;0.70;;;;;;;;;;4986922;28;20827;-60
2022/10/06 13:51:53;;;;;;;2.58;0.73;;;;;;;;;;4987904;28;20034;-60
2022/10/06 13:54:21;;;;;;;3.40;0.70;;;;;;;;;;4988861;28;20054;-60
2022/10/06 13:56:47;;;;;;;2.58;0.65;;;;;;;;;;4988398;28;20211;-60
2022/10/06 13:59:32;;;;;;;5.53;1.02;;;;;;;;;;4984262;28;20133;-60
2022/10/06 14:02:22;;;;;;;1.92;0.75;;;;;;;;;;4983519;28;20537;-60
2022/10/06 14:05:18;;;;;;;3.30;0.98;;;;;;;;;;4982612;28;20050;-60
2022/10/06 14:07:43;;;;;;;4.05;0.77;;;;;;;;;;4979383;28;21360;-60
2022/10/06 14:10:37;;;;;;;4.45;0.82;;;;;;;;;;4987378;28;20030;-60
2022/10/06 14:13:06;;;;;;;4.00;0.80;;;;;;;;;;4980204;28;20129;-60
2022/10/06 14:15:45;;;;;;;4.60;1.13;;;;;;;;;;4986098;28;20062;-60
2022/10/06 14:18:19;;;;;;;6.35;1.00;;;;;;;;;;4986768;28;20562;-59
2022/10/06 14:20:48;;;;;;;4.57;0.80;;;;;;;;;;4988925;28;20137;-59
2022/10/06 14:23:37;;;;;;;6.25;0.73;;;;;;;;;;4987122;28;20078;-61
2022/10/06 14:26:04;;;;;;;6.78;0.98;;;;;;;;;;4984908;28;20109;-60
2022/10/06 14:28:29;;;;;;;3.58;0.85;;;;;;;;;;4983225;28;20129;-60
2022/10/06 14:30:56;;;;;;;4.68;1.55;;;;;;;;;;4981405;28;20109;-60
2022/10/06 14:33:25;;;;;;;7.15;1.20;;;;;;;;;;4987171;28;20470;-60
2022/10/06 14:35:51;;;;;;;8.45;1.50;;;;;;;;;;4980638;28;20046;-60
2022/10/06 14:38:18;;;;;;;6.90;1.25;;;;;;;;;;4973549;28;20133;-60
2022/10/06 14:40:44;;;;;;;3.25;0.80;;;;;;;;;;4984099;28;20134;-60
2022/10/06 14:43:09;;;;;;;2.97;0.68;;;;;;;;;;4985619;28;20117;-60
2022/10/06 14:45:42;;;;;;;4.72;0.88;;;;;;;;;;4987652;28;20118;-60
2022/10/06 14:48:08;;;;;;;5.85;0.90;;;;;;;;;;4981228;28;20043;-61
2022/10/06 14:50:34;;;;;;;3.55;0.70;;;;;;;;;;4994908;28;20120;-65
2022/10/06 14:52:59;;;;;;;5.43;0.85;;;;;;;;;;4994269;28;20049;-61
2022/10/06 14:55:28;;;;;;;3.22;0.80;;;;;;;;;;4993649;28;20046;-61
2022/10/06 14:57:54;;;;;;;3.22;1.10;;;;;;;;;;4991759;28;20064;-61
2022/10/06 15:00:21;;;;;;;3.35;0.88;;;;;;;;;;4995398;28;20038;-61
2022/10/06 15:02:46;;;;;;;2.65;0.60;;;;;;;;;;4988695;28;20049;-61
2022/10/06 15:05:12;;;;;;;4.05;1.00;;;;;;;;;;4994684;28;20055;-61
2022/10/06 15:10:22;;;;;;;4.63;0.77;;;;;;;;;;4993803;28;20045;-60
2022/10/06 15:12:47;;;;;;;4.63;1.05;;;;;;;;;;4993358;28;20027;-60
2022/10/06 15:15:16;;;;;;;3.28;0.82;;;;;;;;;;4998880;28;20054;-61
2022/10/06 15:17:41;;;;;;;6.28;1.20;;;;;;;;;;4995415;28;20062;-60
2022/10/06 15:20:07;;;;;;;3.55;0.80;;;;;;;;;;4989955;28;20400;-60
2022/10/06 15:22:33;;;;;;;4.68;0.70;;;;;;;;;;4980951;28;20050;-60